Time;durP1;ratioP1;P1;durP2;ratioP2;P2;SDS_P1;SDS_P2;PMS_P1;PMS_P2;Temp;Humidity;BMP_temperature;BMP_pressure;BME280_temperature;BME280_humidity;BME280_pressure;Samples;Min_cycle;Max_cycle;Signal;HPM_P1;HPM_P2
2021/08/17 00:07:32;;;;;;;13.05;6.40;;;;;;;13.12;85.34;100796.03;20749561;28;20046;-70
2021/08/17 00:17:34;;;;;;;15.63;7.03;;;;;;;13.03;84.69;100800.59;20754496;28;20053;-70
2021/08/17 00:27:36;;;;;;;11.77;5.68;;;;;;;12.98;84.75;100812.97;20754684;28;20046;-71
2021/08/17 00:37:38;;;;;;;12.50;6.05;;;;;;;12.94;85.66;100800.75;20731880;28;20054;-70
2021/08/17 00:47:40;;;;;;;10.80;5.45;;;;;;;12.77;85.53;100795.81;20668743;28;20049;-69
2021/08/17 00:57:44;;;;;;;12.07;5.65;;;;;;;12.70;84.59;100803.84;20717681;28;20583;-69
2021/08/17 01:07:45;;;;;;;12.07;5.70;;;;;;;12.64;84.84;100801.31;20728101;28;20103;-70
2021/08/17 01:17:48;;;;;;;12.38;5.93;;;;;;;12.63;85.44;100810.94;20745402;28;20462;-70
2021/08/17 01:27:51;;;;;;;10.35;5.20;;;;;;;12.56;85.50;100827.72;20745966;28;20567;-70
2021/08/17 01:37:53;;;;;;;12.90;6.32;;;;;;;12.50;86.53;100836.59;20744795;28;20082;-70
2021/08/17 01:47:55;;;;;;;11.20;5.32;;;;;;;12.19;86.29;100840.56;20743117;28;20046;-70
2021/08/17 01:58:03;;;;;;;14.13;5.72;;;;;;;12.16;86.31;100835.38;20742125;28;20489;-70
2021/08/17 02:08:06;;;;;;;11.88;5.20;;;;;;;12.11;86.13;100842.44;20739212;28;20112;-69
2021/08/17 02:18:07;;;;;;;12.32;5.30;;;;;;;12.03;86.10;100851.31;20740147;28;20551;-70
2021/08/17 02:28:09;;;;;;;10.63;5.40;;;;;;;11.94;86.74;100848.81;20739837;28;20049;-70
2021/08/17 02:38:12;;;;;;;13.43;5.75;;;;;;;11.76;86.38;100857.75;20739008;28;20163;-70
2021/08/17 02:48:14;;;;;;;12.20;5.35;;;;;;;11.73;86.92;100863.03;20738999;28;20042;-69
2021/08/17 02:58:16;;;;;;;11.57;5.10;;;;;;;11.68;86.54;100869.25;20737351;28;20057;-70
2021/08/17 03:08:17;;;;;;;13.50;6.00;;;;;;;11.50;86.30;100860.72;20736039;28;20100;-70
2021/08/17 03:18:19;;;;;;;18.05;6.30;;;;;;;11.44;86.24;100850.28;20742042;28;20041;-70
2021/08/17 03:28:22;;;;;;;11.38;5.30;;;;;;;11.30;86.73;100860.94;20763638;28;20049;-71
2021/08/17 03:38:23;;;;;;;12.52;5.28;;;;;;;11.27;87.48;100855.75;20762699;28;20076;-69
2021/08/17 03:48:25;;;;;;;13.60;6.05;;;;;;;11.34;88.55;100871.41;20763128;28;20424;-71
2021/08/17 03:58:27;;;;;;;17.55;7.07;;;;;;;11.24;87.89;100879.38;20762838;28;20053;-70
2021/08/17 04:08:29;;;;;;;16.25;7.43;;;;;;;11.19;88.65;100889.03;20760708;28;20092;-70
2021/08/17 04:18:31;;;;;;;16.92;7.35;;;;;;;11.12;88.22;100900.47;20760699;28;20057;-71
2021/08/17 04:28:33;;;;;;;19.17;7.75;;;;;;;11.03;88.31;100918.91;20759690;28;20050;-69
2021/08/17 04:38:35;;;;;;;20.08;7.70;;;;;;;10.99;88.25;100920.69;20748609;28;20049;-70
2021/08/17 04:48:36;;;;;;;22.23;9.55;;;;;;;11.05;87.48;100918.00;20751114;28;20069;-70
2021/08/17 04:58:38;;;;;;;18.63;8.40;;;;;;;11.27;87.95;100930.91;20747408;28;20054;-70
2021/08/17 05:08:40;;;;;;;20.63;9.05;;;;;;;11.40;87.15;100927.28;20745024;28;20112;-70
2021/08/17 05:18:42;;;;;;;22.67;9.48;;;;;;;11.57;86.45;100935.81;20745120;28;20116;-70
2021/08/17 05:28:44;;;;;;;25.58;9.80;;;;;;;11.90;85.87;100938.97;20744737;28;20054;-69
2021/08/17 05:38:45;;;;;;;21.60;8.85;;;;;;;12.24;84.62;100946.38;20743027;28;20463;-70
2021/08/17 05:48:48;;;;;;;21.02;9.93;;;;;;;12.53;84.68;100951.22;20721325;28;20495;-70
2021/08/17 05:58:50;;;;;;;20.60;10.00;;;;;;;12.77;84.26;100942.09;20735486;28;20054;-69
2021/08/17 06:08:52;;;;;;;24.15;10.65;;;;;;;12.91;83.58;100953.25;20740679;28;20444;-69
2021/08/17 06:18:54;;;;;;;23.23;10.68;;;;;;;13.00;83.62;100962.75;20740846;28;20103;-69
2021/08/17 06:28:56;;;;;;;26.95;10.73;;;;;;;13.12;83.38;100982.69;20739150;28;20079;-69
2021/08/17 06:38:58;;;;;;;25.52;10.82;;;;;;;13.47;82.80;100977.72;20738779;28;20058;-69
2021/08/17 06:49:00;;;;;;;22.25;11.00;;;;;;;13.65;82.56;100967.75;20738340;28;20054;-69
2021/08/17 06:59:02;;;;;;;24.38;11.43;;;;;;;13.80;82.41;100964.84;20737042;28;20049;-69
2021/08/17 07:09:04;;;;;;;27.35;11.35;;;;;;;14.16;80.98;100963.19;20709354;28;20397;-69
2021/08/17 07:19:05;;;;;;;26.55;11.85;;;;;;;14.35;78.88;100976.81;20738021;28;20041;-69
2021/08/17 07:29:07;;;;;;;25.33;11.63;;;;;;;14.39;78.45;100965.31;20737933;28;20104;-70
2021/08/17 07:39:14;;;;;;;23.23;11.38;;;;;;;14.90;77.36;100954.50;20707731;28;20050;-70
2021/08/17 07:49:16;;;;;;;25.58;12.10;;;;;;;15.86;73.61;100956.38;20655115;28;20101;-70
2021/08/17 07:59:17;;;;;;;19.42;10.15;;;;;;;16.54;69.68;100956.06;20655132;28;20085;-70
2021/08/17 08:09:19;;;;;;;18.90;9.73;;;;;;;16.49;66.43;100965.06;20663080;28;20082;-70
2021/08/17 08:19:21;;;;;;;19.42;10.07;;;;;;;16.45;66.28;100971.34;20668955;28;20129;-71
2021/08/17 08:29:24;;;;;;;17.20;9.80;;;;;;;16.34;67.32;100982.25;20665289;28;20047;-70
2021/08/17 08:39:26;;;;;;;19.92;10.93;;;;;;;16.98;65.53;100977.59;20668013;28;20049;-70
2021/08/17 08:49:32;;;;;;;18.90;9.80;;;;;;;16.49;64.64;100965.91;20667822;28;20077;-71
2021/08/17 08:59:34;;;;;;;16.83;9.15;;;;;;;17.16;62.90;100974.34;20650644;28;20493;-71
2021/08/17 09:09:35;;;;;;;20.33;11.57;;;;;;;16.95;62.88;100984.75;20665883;28;20489;-71
2021/08/17 09:19:43;;;;;;;17.60;10.60;;;;;;;17.21;62.18;100962.75;20746704;28;20054;-71
2021/08/17 09:29:53;;;;;;;17.33;10.15;;;;;;;17.18;62.14;100945.19;20746377;28;20046;-71
2021/08/17 09:39:56;;;;;;;19.63;9.23;;;;;;;16.91;62.43;100939.03;20744988;28;20045;-70
2021/08/17 09:50:22;;;;;;;16.98;9.70;;;;;;;16.94;62.04;100946.88;20742953;28;20050;-70
2021/08/17 10:00:24;;;;;;;16.33;8.77;;;;;;;17.37;59.96;100938.31;20743107;28;20050;-70
2021/08/17 10:10:26;;;;;;;16.85;9.10;;;;;;;17.33;59.63;100930.53;20720028;28;20046;-71
2021/08/17 10:20:28;;;;;;;15.60;9.13;;;;;;;18.24;57.75;100913.03;20661491;28;20051;-71
2021/08/17 10:30:35;;;;;;;14.05;8.43;;;;;;;19.20;55.05;100885.19;20658439;28;20081;-71
2021/08/17 10:40:52;;;;;;;16.83;8.63;;;;;;;18.31;55.22;100881.88;20660115;28;20054;-71
2021/08/17 10:50:54;;;;;;;12.75;6.63;;;;;;;18.38;53.51;100870.09;20659555;28;20050;-71
2021/08/17 11:00:57;;;;;;;13.05;7.00;;;;;;;18.90;51.50;100849.38;20658257;28;20463;-71
2021/08/17 11:11:00;;;;;;;13.50;6.93;;;;;;;19.27;51.25;100835.38;20668926;28;20056;-71
2021/08/17 11:21:01;;;;;;;12.43;5.93;;;;;;;18.93;48.89;100838.66;20739603;28;20138;-71
2021/08/17 11:31:03;;;;;;;8.65;4.63;;;;;;;19.37;47.25;100823.41;20736971;28;20049;-71
2021/08/17 11:41:05;;;;;;;8.38;4.70;;;;;;;19.65;45.69;100815.06;20744349;28;20100;-70
2021/08/17 11:51:09;;;;;;;9.75;5.40;;;;;;;19.67;44.96;100826.44;20754326;28;20079;-71
2021/08/17 12:01:11;;;;;;;10.48;5.75;;;;;;;19.80;44.82;100820.56;20753157;28;20107;-70
2021/08/17 12:11:20;;;;;;;10.13;5.43;;;;;;;19.37;45.55;100822.53;20697329;28;20129;-71
2021/08/17 12:21:23;;;;;;;11.25;5.72;;;;;;;21.10;43.22;100792.78;20751528;28;20822;-71
2021/08/17 12:31:24;;;;;;;10.35;5.57;;;;;;;20.45;44.06;100782.75;20749309;28;20559;-71
2021/08/17 12:41:35;;;;;;;10.95;6.18;;;;;;;20.24;45.46;100781.19;20750449;28;20100;-71
2021/08/17 12:51:37;;;;;;;10.07;5.78;;;;;;;21.20;42.86;100770.03;20747291;28;20041;-71
2021/08/17 13:01:39;;;;;;;12.90;5.72;;;;;;;20.79;41.50;100748.28;20746642;28;20053;-71
2021/08/17 13:11:41;;;;;;;9.23;5.30;;;;;;;20.79;41.42;100742.94;20746483;28;20125;-71
2021/08/17 13:21:43;;;;;;;9.35;5.60;;;;;;;20.20;42.38;100732.63;20745865;28;20119;-70
2021/08/17 13:31:44;;;;;;;9.15;5.72;;;;;;;20.57;43.09;100712.16;20745005;28;20067;-71
2021/08/17 13:41:46;;;;;;;11.75;6.50;;;;;;;20.62;43.20;100691.50;20743625;28;20092;-71
2021/08/17 13:51:48;;;;;;;11.73;6.70;;;;;;;20.06;45.50;100692.56;20744323;28;20420;-70
2021/08/17 14:01:50;;;;;;;12.05;6.93;;;;;;;20.34;44.51;100683.19;20743180;28;20100;-71
2021/08/17 14:11:52;;;;;;;13.40;6.70;;;;;;;19.98;45.41;100702.75;20726574;28;20125;-71
2021/08/17 14:21:54;;;;;;;13.35;7.47;;;;;;;20.05;46.68;100701.50;20662848;28;20050;-70
2021/08/17 14:31:56;;;;;;;11.90;7.10;;;;;;;19.93;47.06;100694.13;20659569;28;20050;-72
2021/08/17 14:41:58;;;;;;;12.52;7.18;;;;;;;20.06;47.67;100695.25;20658261;28;20101;-71
2021/08/17 14:52:00;;;;;;;13.98;7.15;;;;;;;19.84;48.60;100710.56;20657583;28;20153;-71
2021/08/17 15:02:02;;;;;;;14.10;7.90;;;;;;;19.39;50.11;100709.13;20656796;28;20053;-70
2021/08/17 15:12:04;;;;;;;15.13;8.73;;;;;;;19.44;50.49;100697.34;20676283;28;20045;-70
2021/08/17 15:22:06;;;;;;;13.57;7.97;;;;;;;19.43;51.59;100697.44;20737022;28;20046;-71
2021/08/17 15:32:08;;;;;;;16.30;8.50;;;;;;;19.26;54.63;100674.34;20737163;28;20061;-73
2021/08/17 15:42:10;;;;;;;13.98;7.85;;;;;;;19.19;52.86;100668.44;20736416;28;20054;-72
2021/08/17 15:52:12;;;;;;;12.80;7.35;;;;;;;18.82;56.05;100687.00;20736539;28;20116;-71
2021/08/17 16:02:14;;;;;;;14.48;7.75;;;;;;;18.85;55.29;100668.31;20727890;28;20116;-73
2021/08/17 16:12:16;;;;;;;12.95;7.47;;;;;;;18.63;54.75;100671.88;20734886;28;20129;-71
2021/08/17 16:22:17;;;;;;;13.27;7.50;;;;;;;18.69;55.42;100661.03;20679411;28;20160;-71
2021/08/17 16:32:19;;;;;;;13.30;7.50;;;;;;;18.84;56.84;100637.41;20663574;28;20057;-71
2021/08/17 16:42:22;;;;;;;13.05;7.75;;;;;;;18.70;56.87;100646.84;20668131;28;20043;-71
2021/08/17 16:52:24;;;;;;;15.75;7.90;;;;;;;18.40;57.87;100637.59;20666411;28;20432;-73
2021/08/17 17:02:25;;;;;;;15.75;8.50;;;;;;;18.25;61.23;100636.44;20666046;28;20042;-73
2021/08/17 17:12:28;;;;;;;14.98;8.30;;;;;;;18.12;66.50;100627.34;20686668;28;20417;-73
2021/08/17 17:22:29;;;;;;;15.30;8.32;;;;;;;17.78;70.39;100643.81;20746035;28;20096;-71
2021/08/17 17:32:31;;;;;;;17.50;9.40;;;;;;;17.52;72.61;100637.72;20743727;28;20119;-71
2021/08/17 17:42:33;;;;;;;15.63;8.50;;;;;;;17.22;74.88;100649.56;20743850;28;20111;-70
2021/08/17 17:52:35;;;;;;;13.90;8.65;;;;;;;17.03;76.16;100650.25;20742974;28;20108;-68
2021/08/17 18:02:39;;;;;;;16.95;9.93;;;;;;;17.01;80.12;100646.81;20742202;28;20076;-70
2021/08/17 18:12:41;;;;;;;18.20;9.25;;;;;;;16.96;80.00;100638.22;20716731;28;20042;-71
2021/08/17 18:22:43;;;;;;;20.65;10.82;;;;;;;16.79;84.11;100636.19;20642074;28;20050;-71
2021/08/17 18:32:46;;;;;;;16.75;9.82;;;;;;;16.80;82.50;100637.91;20705216;28;20464;-71
2021/08/17 18:42:49;;;;;;;16.53;9.60;;;;;;;16.70;80.64;100639.13;20740062;28;20137;-70
2021/08/17 18:52:51;;;;;;;21.30;9.90;;;;;;;16.77;82.21;100659.19;20737769;28;20083;-71
2021/08/17 19:02:54;;;;;;;18.33;9.80;;;;;;;16.45;84.34;100686.75;20737796;28;20045;-70
2021/08/17 19:12:56;;;;;;;19.15;10.65;;;;;;;16.18;85.19;100715.00;20736799;28;20077;-70
2021/08/17 19:22:58;;;;;;;18.45;9.45;;;;;;;15.86;81.57;100719.56;20737226;28;20489;-71
2021/08/17 19:32:59;;;;;;;17.73;9.52;;;;;;;15.97;82.34;100692.81;20736400;28;20108;-70
2021/08/17 19:43:04;;;;;;;16.67;9.98;;;;;;;16.17;82.19;100674.50;20735841;28;20053;-71
2021/08/17 19:53:06;;;;;;;16.77;9.20;;;;;;;16.13;81.46;100677.28;20735879;28;20525;-70
2021/08/17 20:03:09;;;;;;;17.70;9.48;;;;;;;16.03;82.33;100682.03;20742143;28;20050;-68
2021/08/17 20:13:10;;;;;;;19.23;10.45;;;;;;;15.91;81.99;100679.81;20722585;28;20493;-69
2021/08/17 20:23:14;;;;;;;19.30;10.50;;;;;;;15.90;82.53;100673.69;20668968;28;20053;-71
2021/08/17 20:33:16;;;;;;;17.67;10.17;;;;;;;15.88;82.49;100662.28;20667390;28;20050;-70
2021/08/17 20:43:18;;;;;;;19.45;10.23;;;;;;;15.58;84.63;100677.31;20668587;28;20050;-71
2021/08/17 20:53:20;;;;;;;20.98;10.60;;;;;;;15.07;85.72;100693.84;20678766;28;20054;-70
2021/08/17 21:03:21;;;;;;;19.42;10.32;;;;;;;15.25;85.40;100700.34;20684485;28;20047;-70
2021/08/17 21:13:23;;;;;;;18.17;10.07;;;;;;;15.43;85.01;100706.84;20687277;28;20069;-70
2021/08/17 21:23:36;;;;;;;21.40;10.43;;;;;;;15.35;84.15;100711.47;20746070;28;20049;-70
2021/08/17 21:33:38;;;;;;;20.38;11.77;;;;;;;15.45;83.00;100694.44;20745768;28;20268;-70
2021/08/17 21:43:40;;;;;;;21.45;10.43;;;;;;;15.33;82.14;100695.72;20728369;28;20077;-70
2021/08/17 21:53:42;;;;;;;22.65;11.43;;;;;;;15.40;81.64;100691.09;20745048;28;20049;-72
2021/08/17 22:03:44;;;;;;;23.02;12.38;;;;;;;15.29;83.40;100693.22;20743308;28;20080;-71
2021/08/17 22:13:45;;;;;;;23.60;12.85;;;;;;;15.35;82.96;100687.72;20742151;28;20540;-72
2021/08/17 22:23:47;;;;;;;19.33;11.70;;;;;;;15.45;82.99;100683.91;20740468;28;20133;-73
2021/08/17 22:33:49;;;;;;;19.17;10.95;;;;;;;15.37;82.79;100667.44;20739930;28;20042;-72
2021/08/17 22:43:51;;;;;;;24.35;12.77;;;;;;;15.22;82.15;100660.00;20739666;28;20422;-72
2021/08/17 22:53:53;;;;;;;22.33;12.70;;;;;;;15.05;82.10;100664.03;20739157;28;20049;-71
2021/08/17 23:03:56;;;;;;;23.67;11.68;;;;;;;15.02;82.27;100669.38;20738349;28;20057;-72
2021/08/17 23:13:58;;;;;;;24.50;11.27;;;;;;;14.91;81.85;100670.63;20737757;28;20468;-71
2021/08/17 23:24:00;;;;;;;21.50;10.85;;;;;;;14.88;81.62;100664.50;20736336;28;20053;-71
2021/08/17 23:34:02;;;;;;;19.90;11.20;;;;;;;14.99;80.96;100658.03;20738024;28;20111;-71
2021/08/17 23:44:07;;;;;;;20.75;10.73;;;;;;;14.84;81.54;100665.50;20753476;28;20050;-71
2021/08/17 23:54:09;;;;;;;24.60;10.33;;;;;;;14.89;81.54;100658.31;20753094;28;20053;-71
